createdAt,value
2023-06-30T00:01:31.718Z,11.68
2023-06-30T00:04:39.899Z,11.82
2023-06-30T00:07:48.286Z,11.60
2023-06-30T00:10:56.219Z,11.80
2023-06-30T00:14:04.367Z,10.40
2023-06-30T00:17:13.655Z,11.48
2023-06-30T00:20:22.553Z,10.65
2023-06-30T00:23:30.355Z,10.70
2023-06-30T00:26:38.364Z,10.93
2023-06-30T00:29:46.313Z,12.07
2023-06-30T00:32:55.837Z,11.38
2023-06-30T00:36:03.742Z,12.50
2023-06-30T00:39:11.714Z,11.68
2023-06-30T00:42:20.146Z,10.85
2023-06-30T00:45:28.618Z,9.38
2023-06-30T00:48:37.926Z,11.50
2023-06-30T00:51:46.344Z,10.63
2023-06-30T00:54:54.364Z,11.05
2023-06-30T00:58:02.378Z,13.00
2023-06-30T01:01:12.664Z,12.60
2023-06-30T01:04:26.123Z,11.68
2023-06-30T01:07:38.579Z,10.93
2023-06-30T01:10:46.737Z,12.18
2023-06-30T01:13:56.569Z,12.32
2023-06-30T01:17:04.958Z,10.93
2023-06-30T01:20:14.795Z,11.80
2023-06-30T01:23:30.920Z,11.27
2023-06-30T01:26:39.123Z,10.80
2023-06-30T01:29:48.039Z,10.85
2023-06-30T01:32:56.295Z,11.63
2023-06-30T01:36:06.365Z,10.27
2023-06-30T01:39:14.463Z,10.80
2023-06-30T01:42:22.297Z,10.98
2023-06-30T01:45:30.133Z,10.82
2023-06-30T01:48:37.974Z,11.82
2023-06-30T01:51:47.264Z,11.90
2023-06-30T01:54:55.036Z,11.60
2023-06-30T01:58:03.155Z,11.02
2023-06-30T02:01:11.955Z,11.23
2023-06-30T02:04:19.728Z,10.85
2023-06-30T02:07:31.824Z,12.07
2023-06-30T02:10:40.051Z,11.15
2023-06-30T02:13:48.208Z,11.25
2023-06-30T02:16:56.032Z,11.52
2023-06-30T02:20:06.018Z,12.10
2023-06-30T02:23:16.201Z,10.60
2023-06-30T02:26:23.993Z,12.23
2023-06-30T02:29:32.319Z,11.45
2023-06-30T02:32:41.309Z,10.65
2023-06-30T02:35:49.362Z,12.57
2023-06-30T02:39:00.059Z,12.43
2023-06-30T02:42:08.232Z,12.23
2023-06-30T02:45:18.530Z,11.63
2023-06-30T02:48:27.272Z,11.90
2023-06-30T02:51:35.497Z,11.65
2023-06-30T02:54:45.087Z,13.45
2023-06-30T02:57:52.905Z,11.18
2023-06-30T03:01:00.967Z,13.18
2023-06-30T03:04:09.559Z,12.23
2023-06-30T03:07:19.018Z,11.45
2023-06-30T03:10:28.650Z,12.43
2023-06-30T03:13:36.625Z,11.98
2023-06-30T03:16:45.164Z,11.77
2023-06-30T03:19:54.595Z,11.68
2023-06-30T03:23:02.775Z,11.60
2023-06-30T03:26:12.159Z,12.75
2023-06-30T03:29:20.808Z,11.05
2023-06-30T03:32:28.851Z,9.35
2023-06-30T03:35:36.749Z,8.80
2023-06-30T03:38:44.725Z,7.82
2023-06-30T03:41:54.474Z,7.90
2023-06-30T03:45:02.447Z,7.78
2023-06-30T03:48:14.244Z,8.05
2023-06-30T03:51:23.472Z,7.80
2023-06-30T03:54:33.429Z,5.88
2023-06-30T03:57:43.463Z,6.15
2023-06-30T04:00:51.323Z,6.07
2023-06-30T04:03:59.509Z,5.32
2023-06-30T04:07:07.771Z,5.57
2023-06-30T04:10:15.785Z,5.10
2023-06-30T04:13:24.851Z,5.28
2023-06-30T04:16:32.953Z,4.50
2023-06-30T04:19:40.747Z,4.68
2023-06-30T04:22:48.859Z,3.88
2023-06-30T04:25:57.831Z,4.53
2023-06-30T04:29:06.895Z,3.97
2023-06-30T04:32:14.917Z,4.10
2023-06-30T04:35:26.122Z,4.10
2023-06-30T04:38:34.015Z,3.40
2023-06-30T04:41:42.237Z,3.05
2023-06-30T04:44:51.759Z,3.47
2023-06-30T04:47:59.645Z,3.40
2023-06-30T04:51:07.567Z,3.40
2023-06-30T04:54:15.792Z,3.33
2023-06-30T04:57:23.898Z,3.92
2023-06-30T05:00:33.392Z,3.55
2023-06-30T05:03:41.438Z,3.05
2023-06-30T05:06:49.355Z,3.13
2023-06-30T05:09:57.398Z,2.70
2023-06-30T05:13:05.178Z,2.28
2023-06-30T05:16:14.847Z,3.30
2023-06-30T05:19:23.167Z,3.17
2023-06-30T05:22:31.444Z,2.95
2023-06-30T05:25:39.550Z,2.97
2023-06-30T05:28:56.039Z,3.35
2023-06-30T05:32:10.269Z,2.55
2023-06-30T05:35:18.452Z,2.80
2023-06-30T05:38:26.547Z,2.30
2023-06-30T05:41:34.585Z,2.35
2023-06-30T05:44:42.651Z,2.45
2023-06-30T05:47:52.744Z,2.03
2023-06-30T05:51:00.842Z,2.35
2023-06-30T05:54:10.319Z,2.03
2023-06-30T05:57:18.465Z,1.90
2023-06-30T06:00:26.516Z,2.22
2023-06-30T06:03:36.327Z,2.17
2023-06-30T06:06:44.580Z,1.88
2023-06-30T06:09:52.808Z,1.98
2023-06-30T06:13:00.845Z,1.60
2023-06-30T06:16:09.222Z,1.63
2023-06-30T06:19:21.851Z,1.67
2023-06-30T06:22:31.463Z,1.92
2023-06-30T06:25:39.756Z,2.03
2023-06-30T06:28:47.914Z,1.52
2023-06-30T06:31:56.085Z,1.75
2023-06-30T06:35:05.768Z,1.70
2023-06-30T06:38:13.576Z,1.95
2023-06-30T06:41:21.410Z,1.42
2023-06-30T06:44:29.502Z,1.70
2023-06-30T06:48:14.946Z,2.67
2023-06-30T06:51:24.424Z,1.90
2023-06-30T06:54:32.681Z,1.70
2023-06-30T06:57:40.585Z,1.73
2023-06-30T07:00:49.054Z,1.77
2023-06-30T07:03:57.265Z,1.52
2023-06-30T07:07:06.972Z,1.60
2023-06-30T07:10:15.027Z,1.60
2023-06-30T07:13:23.396Z,1.38
2023-06-30T07:16:31.112Z,1.75
2023-06-30T07:19:39.334Z,1.67
2023-06-30T07:22:48.769Z,2.20
2023-06-30T07:25:56.931Z,2.00
2023-06-30T07:29:04.935Z,1.90
2023-06-30T07:32:12.785Z,1.83
2023-06-30T07:35:20.708Z,1.60
2023-06-30T07:38:30.196Z,1.90
2023-06-30T07:41:38.180Z,2.95
2023-06-30T07:44:46.468Z,1.83
2023-06-30T07:47:54.464Z,1.80
2023-06-30T07:51:09.196Z,1.73
2023-06-30T07:54:19.622Z,2.17
2023-06-30T07:57:28.150Z,2.80
2023-06-30T08:00:36.108Z,2.35
2023-06-30T08:03:44.487Z,2.10
2023-06-30T08:06:52.558Z,1.58
2023-06-30T08:10:01.891Z,2.45
2023-06-30T08:13:09.700Z,1.50
2023-06-30T08:16:17.999Z,1.50
2023-06-30T08:19:48.403Z,1.80
2023-06-30T08:22:54.096Z,2.25
2023-06-30T08:26:03.608Z,1.70
2023-06-30T08:29:11.613Z,1.83
2023-06-30T08:32:19.780Z,2.15
2023-06-30T08:35:28.062Z,3.25
2023-06-30T08:38:36.220Z,2.53
2023-06-30T08:41:45.739Z,2.58
2023-06-30T08:44:54.872Z,2.53
2023-06-30T08:48:06.063Z,2.28
2023-06-30T08:51:17.188Z,2.20
2023-06-30T08:54:25.704Z,1.92
2023-06-30T08:57:35.073Z,2.22
2023-06-30T09:00:42.964Z,2.53
2023-06-30T09:03:50.906Z,2.28
2023-06-30T09:07:01.310Z,1.83
2023-06-30T09:10:10.355Z,2.95
2023-06-30T09:13:20.597Z,2.58
2023-06-30T09:16:28.640Z,2.22
2023-06-30T09:19:37.165Z,2.42
2023-06-30T09:22:51.896Z,2.47
2023-06-30T09:26:03.421Z,2.58
2023-06-30T09:29:13.938Z,2.35
2023-06-30T09:32:28.369Z,2.28
2023-06-30T09:35:38.851Z,2.80
2023-06-30T09:38:46.835Z,2.42
2023-06-30T09:41:54.698Z,2.33
2023-06-30T09:45:04.709Z,2.28
2023-06-30T09:48:12.884Z,2.47
2023-06-30T09:51:22.772Z,2.63
2023-06-30T09:57:44.860Z,2.80
2023-06-30T10:00:54.332Z,2.58
2023-06-30T10:04:02.596Z,2.20
2023-06-30T10:07:11.290Z,2.05
2023-06-30T10:10:19.441Z,2.53
2023-06-30T10:13:27.937Z,2.75
2023-06-30T10:16:37.066Z,2.33
2023-06-30T10:19:45.331Z,2.90
2023-06-30T10:22:53.485Z,2.47
2023-06-30T10:26:01.461Z,2.28
2023-06-30T10:29:09.206Z,2.45
2023-06-30T10:32:21.676Z,2.50
2023-06-30T10:35:29.725Z,2.47
2023-06-30T10:38:38.244Z,3.30
2023-06-30T10:41:49.602Z,2.97
2023-06-30T10:45:00.214Z,2.87
2023-06-30T10:48:15.813Z,2.20
2023-06-30T10:51:23.741Z,2.50
2023-06-30T10:54:32.442Z,2.72
2023-06-30T10:57:41.454Z,2.58
2023-06-30T11:01:03.708Z,2.83
2023-06-30T11:04:16.353Z,2.42
2023-06-30T11:10:36.777Z,2.55
2023-06-30T11:13:45.814Z,3.22
2023-06-30T11:17:04.553Z,2.97
2023-06-30T11:20:15.208Z,2.47
2023-06-30T11:23:23.072Z,2.33
2023-06-30T11:26:30.903Z,2.85
2023-06-30T11:29:38.961Z,3.00
2023-06-30T11:32:47.157Z,2.67
2023-06-30T11:36:00.516Z,2.70
2023-06-30T11:39:08.796Z,4.35
2023-06-30T11:42:16.752Z,2.80
2023-06-30T11:45:28.651Z,2.60
2023-06-30T11:48:39.424Z,2.53
2023-06-30T11:51:49.644Z,2.70
2023-06-30T11:54:58.233Z,3.33
2023-06-30T11:58:09.836Z,2.55
2023-06-30T12:01:17.830Z,2.45
2023-06-30T12:04:35.615Z,2.78
2023-06-30T12:07:46.009Z,3.03
2023-06-30T12:10:53.883Z,2.78
2023-06-30T12:14:01.629Z,2.28
2023-06-30T12:17:10.271Z,2.67
2023-06-30T12:20:22.257Z,2.85
2023-06-30T12:23:31.629Z,3.10
2023-06-30T12:26:40.470Z,2.90
2023-06-30T12:29:49.389Z,3.08
2023-06-30T12:32:59.163Z,4.28
2023-06-30T12:36:08.324Z,5.32
2023-06-30T12:39:17.813Z,52.15
2023-06-30T12:42:26.550Z,2.95
2023-06-30T12:45:35.613Z,3.05
2023-06-30T12:48:43.784Z,3.28
2023-06-30T12:51:51.720Z,2.78
2023-06-30T12:55:03.013Z,2.78
2023-06-30T12:58:10.834Z,2.90
2023-06-30T13:01:18.736Z,2.60
2023-06-30T13:04:28.454Z,2.53
2023-06-30T13:07:37.072Z,2.35
2023-06-30T13:10:47.103Z,3.13
2023-06-30T13:13:55.062Z,2.63
2023-06-30T13:17:02.864Z,2.97
2023-06-30T13:20:11.312Z,2.70
2023-06-30T13:23:28.026Z,2.22
2023-06-30T13:26:48.090Z,2.78
2023-06-30T13:29:56.897Z,2.13
2023-06-30T13:33:07.224Z,2.20
2023-06-30T13:36:16.443Z,2.53
2023-06-30T13:39:24.631Z,2.35
2023-06-30T13:42:35.251Z,2.53
2023-06-30T13:45:43.394Z,2.85
2023-06-30T13:48:51.462Z,2.70
2023-06-30T13:51:59.612Z,2.55
2023-06-30T13:55:08.527Z,2.47
2023-06-30T13:58:18.080Z,2.40
2023-06-30T14:01:26.115Z,2.75
2023-06-30T14:04:34.211Z,3.08
2023-06-30T14:07:43.122Z,2.38
2023-06-30T14:10:51.053Z,2.33
2023-06-30T14:14:04.429Z,2.30
2023-06-30T14:17:12.972Z,2.47
2023-06-30T14:20:20.839Z,2.40
2023-06-30T14:23:28.990Z,2.60
2023-06-30T14:26:37.749Z,2.17
2023-06-30T14:29:47.002Z,2.40
2023-06-30T14:32:55.272Z,2.80
2023-06-30T14:36:04.349Z,1.92
2023-06-30T14:39:12.290Z,2.13
2023-06-30T14:42:31.267Z,2.58
2023-06-30T14:45:41.830Z,2.45
2023-06-30T14:48:50.749Z,2.50
2023-06-30T14:51:58.488Z,2.60
2023-06-30T14:55:07.274Z,1.92
2023-06-30T14:58:15.468Z,2.70
2023-06-30T15:01:25.821Z,2.42
2023-06-30T15:04:34.994Z,2.75
2023-06-30T15:07:44.739Z,2.45
2023-06-30T15:10:54.020Z,2.72
2023-06-30T15:14:01.839Z,2.30
2023-06-30T15:17:11.160Z,2.33
2023-06-30T15:20:19.323Z,2.55
2023-06-30T15:23:27.067Z,2.40
2023-06-30T15:26:35.169Z,2.47
2023-06-30T15:29:42.934Z,2.10
2023-06-30T15:32:52.357Z,2.10
2023-06-30T15:36:00.181Z,2.83
2023-06-30T15:39:08.353Z,2.00
2023-06-30T15:42:16.413Z,2.10
2023-06-30T15:45:24.587Z,2.10
2023-06-30T15:48:33.964Z,2.42
2023-06-30T15:51:41.888Z,2.70
2023-06-30T15:54:49.828Z,2.30
2023-06-30T15:57:59.782Z,2.13
2023-06-30T16:01:07.744Z,3.45
2023-06-30T16:04:17.380Z,2.45
2023-06-30T16:07:25.574Z,1.95
2023-06-30T16:10:33.771Z,2.17
2023-06-30T16:13:41.547Z,3.13
2023-06-30T16:16:49.534Z,2.85
2023-06-30T16:19:58.916Z,2.30
2023-06-30T16:23:06.744Z,2.15
2023-06-30T16:26:14.715Z,13.50
2023-06-30T16:29:22.852Z,10.90
2023-06-30T16:32:30.799Z,23.25
2023-06-30T16:35:40.385Z,40.58
2023-06-30T16:38:48.572Z,19.98
2023-06-30T16:41:56.506Z,12.30
2023-06-30T16:45:05.067Z,9.13
2023-06-30T16:48:13.082Z,7.68
2023-06-30T16:51:22.463Z,6.82
2023-06-30T16:54:30.387Z,5.53
2023-06-30T16:57:39.032Z,5.00
2023-06-30T17:00:47.238Z,3.75
2023-06-30T17:03:55.133Z,4.22
2023-06-30T17:07:04.607Z,2.78
2023-06-30T17:10:12.675Z,3.30
2023-06-30T17:13:20.810Z,3.33
2023-06-30T17:16:28.670Z,2.60
2023-06-30T17:19:36.537Z,2.45
2023-06-30T17:22:45.945Z,3.10
2023-06-30T17:25:54.173Z,2.33
2023-06-30T17:29:02.044Z,2.22
2023-06-30T17:32:10.368Z,2.22
2023-06-30T17:35:18.298Z,2.20
2023-06-30T17:38:27.758Z,1.83
2023-06-30T17:41:36.042Z,1.98
2023-06-30T17:44:44.457Z,2.35
2023-06-30T17:47:52.550Z,3.30
2023-06-30T17:51:00.752Z,2.70
2023-06-30T17:54:10.732Z,3.42
2023-06-30T17:57:18.889Z,2.95
2023-06-30T18:00:26.932Z,32.60
2023-06-30T18:03:35.591Z,14.25
2023-06-30T18:07:02.122Z,13.70
2023-06-30T18:10:14.428Z,12.68
2023-06-30T18:13:22.854Z,10.18
2023-06-30T18:16:30.837Z,5.97
2023-06-30T18:19:40.859Z,4.50
2023-06-30T18:22:48.836Z,3.72
2023-06-30T18:25:58.032Z,3.33
2023-06-30T18:29:05.917Z,2.70
2023-06-30T18:32:13.950Z,2.60
2023-06-30T18:35:21.814Z,2.55
2023-06-30T18:38:29.978Z,2.42
2023-06-30T18:41:39.373Z,2.67
2023-06-30T18:44:47.562Z,3.08
2023-06-30T18:47:55.592Z,2.03
2023-06-30T18:51:03.951Z,2.20
2023-06-30T18:54:12.043Z,2.17
2023-06-30T18:57:21.741Z,2.47
2023-06-30T19:00:29.849Z,1.83
2023-06-30T19:03:37.917Z,2.20
2023-06-30T19:06:48.544Z,1.60
2023-06-30T19:09:56.504Z,1.75
2023-06-30T19:13:05.695Z,2.10
2023-06-30T19:16:13.714Z,2.17
2023-06-30T19:19:21.616Z,1.63
2023-06-30T19:22:29.612Z,1.85
2023-06-30T19:25:37.606Z,2.17
2023-06-30T19:28:47.041Z,2.00
2023-06-30T19:31:54.909Z,1.85
2023-06-30T19:35:05.320Z,1.55
2023-06-30T19:38:13.475Z,1.90
2023-06-30T19:41:24.554Z,2.42
2023-06-30T19:44:34.264Z,2.10
2023-06-30T19:47:42.084Z,1.90
2023-06-30T19:50:49.872Z,2.05
2023-06-30T19:53:57.635Z,1.90
2023-06-30T19:57:06.048Z,1.92
2023-06-30T20:00:16.279Z,1.92
2023-06-30T20:03:24.375Z,1.83
2023-06-30T20:06:32.596Z,1.88
2023-06-30T20:09:40.626Z,2.15
2023-06-30T20:12:48.782Z,2.00
2023-06-30T20:15:57.928Z,1.90
2023-06-30T20:19:06.050Z,2.10
2023-06-30T20:22:13.973Z,2.10
2023-06-30T20:25:24.325Z,2.28
2023-06-30T20:28:32.234Z,2.05
2023-06-30T20:31:41.742Z,2.42
2023-06-30T20:34:50.031Z,2.00
2023-06-30T20:37:58.292Z,1.45
2023-06-30T20:41:06.398Z,2.10
2023-06-30T20:44:14.873Z,1.83
2023-06-30T20:47:24.801Z,1.77
2023-06-30T20:50:33.011Z,2.67
2023-06-30T20:53:41.192Z,2.10
2023-06-30T20:56:49.057Z,2.15
2023-06-30T20:59:57.038Z,2.38
2023-06-30T21:03:06.495Z,2.03
2023-06-30T21:06:15.781Z,1.95
2023-06-30T21:09:23.750Z,1.98
2023-06-30T21:12:31.839Z,2.05
2023-06-30T21:15:39.731Z,2.05
2023-06-30T21:18:49.324Z,2.20
2023-06-30T21:21:58.512Z,2.83
2023-06-30T21:25:07.624Z,1.98
2023-06-30T21:28:16.832Z,2.17
2023-06-30T21:31:24.856Z,2.05
2023-06-30T21:34:34.179Z,2.00
2023-06-30T21:37:42.044Z,2.10
2023-06-30T21:40:50.082Z,2.10
2023-06-30T21:43:58.245Z,2.20
2023-06-30T21:47:06.836Z,2.13
2023-06-30T21:50:16.120Z,2.13
2023-06-30T21:53:24.378Z,2.00
2023-06-30T21:56:32.306Z,2.40
2023-06-30T21:59:40.186Z,2.05
2023-06-30T22:02:50.933Z,1.98
2023-06-30T22:06:01.570Z,2.10
2023-06-30T22:09:16.587Z,2.38
2023-06-30T22:12:25.201Z,2.00
2023-06-30T22:15:33.027Z,3.30
2023-06-30T22:18:42.100Z,1.92
2023-06-30T22:21:51.388Z,2.25
2023-06-30T22:24:59.347Z,4.10
2023-06-30T22:28:07.308Z,1.85
2023-06-30T22:31:15.082Z,2.50
2023-06-30T22:34:24.878Z,1.90
2023-06-30T22:37:34.391Z,2.28
2023-06-30T22:40:42.338Z,2.03
2023-06-30T22:43:50.249Z,2.15
2023-06-30T22:46:58.233Z,2.13
2023-06-30T22:50:07.515Z,2.25
2023-06-30T22:53:16.707Z,2.13
2023-06-30T22:56:24.905Z,2.00
2023-06-30T22:59:32.938Z,2.17
2023-06-30T23:02:40.885Z,1.80
2023-06-30T23:05:48.854Z,1.73
2023-06-30T23:08:58.030Z,2.10
2023-06-30T23:12:06.940Z,2.38
2023-06-30T23:15:15.005Z,1.95
2023-06-30T23:18:22.910Z,2.20
2023-06-30T23:21:33.838Z,2.03
2023-06-30T23:24:47.689Z,2.40
2023-06-30T23:27:56.137Z,1.85
2023-06-30T23:31:05.896Z,2.20
2023-06-30T23:34:17.636Z,1.77
2023-06-30T23:37:25.535Z,2.05
2023-06-30T23:40:35.011Z,2.13
2023-06-30T23:43:42.812Z,1.85
2023-06-30T23:46:50.746Z,1.90
2023-06-30T23:49:58.524Z,1.98
2023-06-30T23:53:06.507Z,2.30
2023-06-30T23:56:15.813Z,2.15
2023-06-30T23:59:23.593Z,2.17
